Aérodrome :
LOGIN :

S'inscrire | Disclaimer

   EN    FR    IT 

 










Légende :    VFR   VFR Marginal   IFR   IFR Intensif   IFR Très Intensif
Visi : 
Plafond : 
>= 8 km
>= 3000ft
5 à 8 km
1000 à 3000 ft
1500m à 5 km
500 à 1000 ft
800 à 1500m
200 à 500 ft
< 800m
< 200 ft
Symboles :   Orages  Brouillard  Fortes neiges  Fortes précipitations  Vent > 20 kt
SIGMETs :   Divers  Orages  Givrage  Turbulence  Onde Orograph.  Cendres Volcan.







- Altitude de l'aérodrome : 1910 ft
- Code IATA : RDZ
- Voir les cartes d'approche


LFCR - Rodez

DERNIER METAR :
  • 201830Z AUTO 26004KT 9999 BKN010/// OVC017/// ///CB 03/03 Q1013 BECMG OVC009

METARs EXPIRÉS :
  • 201800Z AUTO 25004KT 9999 SCT006/// SCT011/// BKN018/// ///CB 04/03 Q1013 BECMG OVC009
  • 201730Z AUTO 28006KT 240V320 9999 DZ BKN007/// BKN011/// BKN017/// ///CB 04/03 Q1013 BECMG NSW OVC009
  • 201700Z AUTO 28004KT 9999 -DZ BKN016/// BKN024/// OVC044/// ///CB 04/03 Q1012 BECMG OVC009
  • 201630Z AUTO 30004KT 9999 -RA SCT023/// BKN044/// BKN050/// ///CB 05/03 Q1012 BECMG OVC009
  • 201600Z AUTO 29003KT 9999 BKN025/// BKN043/// BKN054/// ///TCU 05/02 Q1012 BECMG BKN014 BKN040

TAF TAF LFCR
Valide du 20 à 18h jusqu'au 21 à 18h UTC


201700Z 2018/2118 30004KT 9999 BKN016
BECMG 2018/2021 OVC009
BECMG 2021/2023 3000 BR OVC002
TEMPO 2023/2107 1200 BR VV///
PROB40
TEMPO 2100/2107 0600 FG
PROB30
TEMPO 2100/2107 0200
BECMG 2110/2112 6000 NSW BKN007
TEMPO 2112/2118 SCT014
Pas de NOTAMs connus pour ce terrain.



MET'MAP, la Météo Aéronautique d'un coup d'oeil ! - Copyright ORBIFLY Décembre 2007 - Disclaimer

ORBIFLY MET'MAP TEAM :

Programmation & Développement : Alexandra Zaïnal
Conception & Développement : Baudouin d'Aumeries
Co-Programmation & Développement : Marc-Olivier Méhu
Soutien technique & logistique : Manuel Goepfert

Contact : metmap@orbifly.com




SOURCES & CREDITS :

   NOAA